Antler, ND

3:35 PM CDT on July 25, 2014 (GMT -0500)
East End Behind Tesoro (KNDMOHAL2) Elev 1631 ft | 48.77 °N, 101.50 °W | Change Station
Active Advisory: Flood Warning Active Notice: Public Information Statement

Current weather conditions updated 4 seconds ago

Clear
Clear
76.1 °F
Feels Like 78 °F
N
11.8
Wind Variable Wind from WSW
Gusts 17.0 mph

Today is forecast to be Cooler than yesterday.

Today
High -- | Low -- °F
--% Chance of Precip.
Yesterday
High -- | Low -- °F
Precip. -- in
6:09 AM 9:33 PM
Waning Crescent, 1% visible
Pressure 29.79 in
Visibility 10.0 miles
Clouds Clear
Heat Index 78 °F
Dew Point 51 °F
Humidity 42%
Rainfall 0.04 in
Snow Depth Not available.
UV 5.9 out of 12
Pollen 7.10 out of 12
Air Quality Not available.
Flu Activity Not available.
METAR KMIB 251958Z AUTO 26013KT 10SM CLR 24/12 A2979 RMK AO2 SLP087 T02400115 $

More Conditions Fewer Conditions

Pressure 29.79 in
Visibility 10.0 miles
Clouds Clear
Heat Index 78 °F
Dew Point 51 °F
Humidity 42%
Rainfall 0.04 in
Snow Depth Not available.
UV 5.9 out of 12
Pollen 7.10 out of 12
Air Quality Not available.
Flu Activity Not available.
METAR KMIB 251958Z AUTO 26013KT 10SM CLR 24/12 A2979 RMK AO2 SLP087 T02400115 $

More Conditions Fewer Conditions

10-Day Weather Forecast

Almanac

Astronomy

Jul. 25, 2014 Rise Set
Actual Time 6:09 AM CDT 9:33 PM CDT
Civil Twilight 5:30 AM CDT 10:12 PM CDT
Nautical Twilight 4:39 AM CDT 11:03 PM CDT
Astronomical Twilight 3:30 AM CDT 12:10 AM CDT
Moon 5:14 AM CDT 8:26 PM CDT
Length of Visible Light 16h 41m
Length of Day
15h 24m
Tomorrow will be 2m 32s shorter.
Waning Crescent, 1% of the Moon is Illuminated
Today
Waning Crescent
Jul 26
New
Aug 3
First Quarter
Aug 10
Full
Aug 17
Last Quarter

Today's Extremes

State Highs State Lows

Community

WunderPhotos

Upload Photos

1,737,397 photos uploaded!

Nearby

Snow Depth

Station Depth Elevation
No new snow has been reported.

Earthquake Activity

City Distance Mag. Time & Date
No recent earthquake activity has been reported nearby.
Minimum magnitude displayed is 2.5.

Coastal Water Temperatures

Place Temperature
No Stations Reporting

Nearby Weather Stations

Station Location Temp. Heat Index Dew Point Humidity Wind Precip. Elev Updated Type
East End Behind Tesoro, Mohall, ND 76.1 °F 78 °F 51 °F 42% WSW  at  11.8 mph 0.00 in / hr 1631 ft 3:35 PM CDT Rapid Fire

Show More Stations Show Fewer Stations